Time;durP1;ratioP1;P1;durP2;ratioP2;P2;SDS_P1;SDS_P2;PMS_P1;PMS_P2;Temp;Humidity;BMP_temperature;BMP_pressure;BME280_temperature;BME280_humidity;BME280_pressure;Samples;Min_cycle;Max_cycle;Signal;HPM_P1;HPM_P2
2021/04/22 00:04:32;;;;;;;8.73;5.77;;;;;;;7.34;100.00;95089.34;10383155;28;20099;-76
2021/04/22 00:09:33;;;;;;;12.40;5.43;;;;;;;7.27;100.00;95092.19;10383363;28;20268;-76
2021/04/22 00:14:33;;;;;;;9.88;6.55;;;;;;;7.17;100.00;95081.31;10383645;28;20087;-76
2021/04/22 00:19:34;;;;;;;8.52;5.78;;;;;;;7.00;100.00;95081.31;10399808;28;20861;-76
2021/04/22 00:24:34;;;;;;;11.43;5.85;;;;;;;7.07;100.00;95075.81;10399828;28;20026;-76
2021/04/22 00:29:34;;;;;;;10.90;5.87;;;;;;;6.91;100.00;95082.78;10400677;28;20515;-76
2021/04/22 00:34:35;;;;;;;14.00;6.27;;;;;;;6.96;100.00;95082.84;10400931;28;20120;-76
2021/04/22 00:39:36;;;;;;;10.40;6.23;;;;;;;6.89;100.00;95088.34;10400075;28;20068;-76
2021/04/22 00:44:37;;;;;;;15.25;7.00;;;;;;;6.90;100.00;95081.94;10400900;28;20049;-76
2021/04/22 00:49:37;;;;;;;18.90;5.83;;;;;;;6.78;100.00;95074.00;10400895;28;20468;-76
2021/04/22 00:54:41;;;;;;;9.23;5.35;;;;;;;6.77;100.00;95082.28;10399816;28;20280;-75
2021/04/22 00:59:41;;;;;;;8.80;5.75;;;;;;;6.72;100.00;95084.84;10403796;28;20542;-77
2021/04/22 01:04:46;;;;;;;13.27;5.90;;;;;;;6.72;100.00;95087.50;10408780;28;20120;-77
2021/04/22 01:09:46;;;;;;;8.40;6.20;;;;;;;6.58;100.00;95093.13;10408566;28;20044;-77
2021/04/22 01:14:47;;;;;;;10.57;6.47;;;;;;;6.43;100.00;95104.34;10408142;28;20037;-76
2021/04/22 01:19:47;;;;;;;16.77;6.80;;;;;;;6.29;100.00;95097.66;10407766;28;20026;-76
2021/04/22 01:24:48;;;;;;;11.25;6.75;;;;;;;6.18;100.00;95098.50;10393971;28;20025;-81
2021/04/22 01:29:48;;;;;;;11.32;6.13;;;;;;;6.12;100.00;95101.06;10413646;28;20461;-82
2021/04/22 01:34:49;;;;;;;16.40;6.53;;;;;;;5.83;100.00;95100.16;10414132;28;20025;-82
2021/04/22 01:39:49;;;;;;;15.38;8.52;;;;;;;5.61;100.00;95102.59;10413212;28;20033;-81
2021/04/22 01:44:50;;;;;;;15.10;8.60;;;;;;;5.44;100.00;95099.81;10412684;28;20056;-81
2021/04/22 01:49:50;;;;;;;17.67;8.30;;;;;;;5.41;100.00;95098.44;10411758;28;20112;-81
2021/04/22 01:54:51;;;;;;;21.63;10.27;;;;;;;5.21;100.00;95095.31;10395224;28;20033;-81
2021/04/22 01:59:52;;;;;;;19.63;9.48;;;;;;;5.37;100.00;95096.47;10413107;28;20120;-81
2021/04/22 02:04:52;;;;;;;19.70;10.20;;;;;;;5.25;100.00;95104.47;10412680;28;20366;-81
2021/04/22 02:09:52;;;;;;;20.13;10.40;;;;;;;5.30;100.00;95100.06;10412732;28;20315;-81
2021/04/22 02:14:53;;;;;;;19.23;10.10;;;;;;;5.42;100.00;95091.25;10411927;28;20279;-82
2021/04/22 02:19:53;;;;;;;20.65;11.52;;;;;;;5.30;100.00;95094.75;10413099;28;20021;-83
2021/04/22 02:24:54;;;;;;;20.57;11.07;;;;;;;5.27;100.00;95097.88;10412893;28;20056;-81
2021/04/22 02:29:54;;;;;;;24.23;10.23;;;;;;;5.29;100.00;95102.97;10394462;28;20287;-82
2021/04/22 02:34:54;;;;;;;21.00;10.40;;;;;;;5.18;100.00;95112.56;10412242;28;20033;-83
2021/04/22 02:39:55;;;;;;;20.47;12.20;;;;;;;5.06;100.00;95111.72;10411918;28;20065;-83
2021/04/22 02:44:55;;;;;;;19.10;11.60;;;;;;;4.82;100.00;95110.88;10411686;28;20053;-80
2021/04/22 02:49:55;;;;;;;20.97;11.27;;;;;;;4.84;100.00;95108.78;10411694;28;20116;-83
2021/04/22 02:54:56;;;;;;;23.20;14.00;;;;;;;4.69;100.00;95111.84;10411877;28;20029;-83
2021/04/22 02:59:56;;;;;;;21.55;12.45;;;;;;;4.69;100.00;95119.84;10391711;28;20041;-82
2021/04/22 03:04:57;;;;;;;25.23;13.80;;;;;;;4.66;100.00;95118.47;10401102;28;20048;-81
2021/04/22 03:09:58;;;;;;;24.77;15.23;;;;;;;4.67;100.00;95112.09;10406490;28;20044;-81
2021/04/22 03:14:58;;;;;;;25.15;13.38;;;;;;;4.75;100.00;95121.63;10407883;28;20348;-82
2021/04/22 03:19:58;;;;;;;25.77;15.07;;;;;;;4.79;100.00;95123.59;10410207;28;20023;-82
2021/04/22 03:25:00;;;;;;;26.77;15.10;;;;;;;4.73;100.00;95127.16;10409954;28;20282;-82
2021/04/22 03:30:01;;;;;;;37.17;13.40;;;;;;;4.64;100.00;95133.03;10410275;28;20276;-82
2021/04/22 03:35:03;;;;;;;31.08;14.95;;;;;;;4.71;100.00;95136.41;10409961;28;20670;-83
2021/04/22 03:40:05;;;;;;;28.33;14.93;;;;;;;4.78;100.00;95135.28;10406544;28;20031;-76
2021/04/22 03:45:09;;;;;;;36.90;14.20;;;;;;;4.61;100.00;95137.75;10399491;28;20077;-76
2021/04/22 03:50:12;;;;;;;37.33;17.35;;;;;;;4.64;100.00;95143.69;10401565;28;20025;-76
2021/04/22 03:55:15;;;;;;;31.23;16.27;;;;;;;4.66;100.00;95147.75;10401159;28;20823;-75
2021/04/22 04:00:19;;;;;;;35.25;16.38;;;;;;;4.71;100.00;95145.19;10401019;28;20104;-76
2021/04/22 04:05:19;;;;;;;32.13;17.50;;;;;;;4.60;100.00;95146.81;10399400;28;20402;-76
2021/04/22 04:10:20;;;;;;;38.58;16.30;;;;;;;4.64;100.00;95155.13;10399113;28;20084;-75
2021/04/22 04:15:20;;;;;;;39.25;14.32;;;;;;;4.86;100.00;95155.47;10400033;28;20034;-76
2021/04/22 04:20:21;;;;;;;29.95;12.18;;;;;;;4.91;100.00;95165.41;10390510;28;20026;-76
2021/04/22 04:25:21;;;;;;;15.82;8.75;;;;;;;5.08;100.00;95170.91;10359050;28;20465;-76
2021/04/22 04:30:22;;;;;;;19.70;8.98;;;;;;;5.18;100.00;95181.84;10342423;28;20551;-76
2021/04/22 04:35:23;;;;;;;16.27;8.55;;;;;;;5.26;100.00;95189.50;10362937;28;20037;-76
2021/04/22 04:40:23;;;;;;;13.55;6.97;;;;;;;5.37;100.00;95197.75;10367003;28;20188;-76
2021/04/22 04:45:23;;;;;;;8.60;5.65;;;;;;;5.18;100.00;95197.81;10366719;28;20104;-76
2021/04/22 04:50:24;;;;;;;10.57;6.33;;;;;;;5.26;100.00;95197.50;10366391;28;20029;-76
2021/04/22 04:55:24;;;;;;;10.57;6.60;;;;;;;5.37;100.00;95205.75;10366077;28;20296;-77
2021/04/22 05:00:25;;;;;;;12.50;7.43;;;;;;;5.81;100.00;95215.06;10365230;28;20343;-76
2021/04/22 05:05:25;;;;;;;13.10;5.78;;;;;;;6.66;100.00;95198.78;10365250;28;20273;-77
2021/04/22 05:10:26;;;;;;;11.75;6.82;;;;;;;7.82;100.00;95202.94;10365016;28;20118;-77
2021/04/22 05:15:26;;;;;;;17.23;6.68;;;;;;;8.57;100.00;95207.22;10364821;28;20053;-77
2021/04/22 05:20:26;;;;;;;16.53;5.60;;;;;;;9.47;100.00;95207.69;10396110;28;20025;-77
2021/04/22 05:25:27;;;;;;;11.27;6.17;;;;;;;10.56;99.04;95204.75;10406214;28;20036;-77
2021/04/22 05:30:27;;;;;;;11.97;6.27;;;;;;;11.05;90.00;95210.84;10404860;28;20033;-77
2021/04/22 05:35:28;;;;;;;10.68;5.38;;;;;;;11.68;82.96;95202.66;10382140;28;20733;-76
2021/04/22 05:40:29;;;;;;;11.43;5.30;;;;;;;12.26;81.19;95209.66;10364482;28;20049;-76
2021/04/22 05:45:29;;;;;;;8.55;4.70;;;;;;;12.93;74.00;95212.97;10363399;28;20288;-77
2021/04/22 05:50:30;;;;;;;12.33;5.27;;;;;;;13.80;66.70;95213.59;10363493;28;20584;-76
2021/04/22 05:55:31;;;;;;;13.23;7.07;;;;;;;14.82;63.65;95208.38;10364253;28;20496;-76
2021/04/22 06:00:31;;;;;;;11.48;6.78;;;;;;;14.95;62.83;95198.75;10363806;28;20852;-77
2021/04/22 06:05:31;;;;;;;13.45;7.35;;;;;;;15.85;54.66;95196.97;10363505;28;20473;-77
2021/04/22 06:10:32;;;;;;;16.43;8.63;;;;;;;16.13;53.91;95197.09;10363366;28;20030;-77
2021/04/22 06:15:32;;;;;;;14.47;7.30;;;;;;;16.57;54.64;95193.03;10363276;28;20810;-77
2021/04/22 06:20:33;;;;;;;11.87;5.73;;;;;;;17.34;47.43;95190.72;10362563;28;20265;-77
2021/04/22 06:25:33;;;;;;;13.67;5.93;;;;;;;18.21;48.12;95196.09;10363115;28;20647;-77
2021/04/22 06:30:34;;;;;;;10.95;5.90;;;;;;;18.53;43.73;95187.94;10362675;28;20269;-77
2021/04/22 06:35:34;;;;;;;12.25;6.45;;;;;;;19.47;41.71;95182.34;10361078;28;20389;-76
2021/04/22 06:40:35;;;;;;;15.57;6.43;;;;;;;19.97;43.14;95178.38;10362618;28;20033;-76
2021/04/22 06:45:35;;;;;;;10.00;5.50;;;;;;;21.10;39.76;95168.28;10362053;28;20493;-76
2021/04/22 06:50:36;;;;;;;11.02;6.22;;;;;;;21.13;39.46;95181.28;10370910;28;20033;-77
2021/04/22 06:55:38;;;;;;;10.45;6.10;;;;;;;20.74;37.70;95175.03;10402368;28;20041;-77
2021/04/22 07:00:40;;;;;;;13.18;5.88;;;;;;;20.23;39.19;95181.06;10401650;28;20425;-77
2021/04/22 07:05:41;;;;;;;12.27;6.30;;;;;;;20.90;41.25;95189.72;10374262;28;20045;-78
2021/04/22 07:10:43;;;;;;;13.40;7.23;;;;;;;19.97;41.23;95189.28;10360841;28;20036;-77
2021/04/22 07:15:43;;;;;;;15.73;7.60;;;;;;;20.81;42.19;95181.56;10361314;28;20296;-77
2021/04/22 07:20:44;;;;;;;17.23;7.97;;;;;;;21.72;38.33;95176.91;10359884;28;20384;-77
2021/04/22 07:25:45;;;;;;;11.85;7.10;;;;;;;22.57;37.26;95177.59;10360962;28;20156;-77
2021/04/22 07:30:45;;;;;;;13.35;7.95;;;;;;;23.25;36.00;95179.84;10360036;28;20034;-77
2021/04/22 07:35:46;;;;;;;19.23;8.68;;;;;;;22.28;36.86;95187.53;10360098;28;20117;-77
2021/04/22 07:40:47;;;;;;;21.73;9.55;;;;;;;23.18;36.18;95180.44;10359875;28;20033;-77
2021/04/22 07:45:48;;;;;;;17.65;9.00;;;;;;;24.05;35.50;95183.03;10359213;28;20420;-77
2021/04/22 07:50:49;;;;;;;13.88;9.73;;;;;;;24.17;34.32;95180.25;10359072;28;20091;-77
2021/04/22 07:55:50;;;;;;;13.77;8.20;;;;;;;24.65;33.32;95166.63;10359256;28;20049;-77
2021/04/22 08:00:51;;;;;;;16.92;8.65;;;;;;;25.07;32.52;95155.09;10360163;28;20273;-77
2021/04/22 08:05:56;;;;;;;19.73;8.25;;;;;;;26.19;31.13;95154.84;10359487;28;20403;-77
2021/04/22 08:10:56;;;;;;;12.57;7.68;;;;;;;26.61;28.92;95143.00;10365835;28;20560;-77
2021/04/22 08:15:58;;;;;;;18.77;7.20;;;;;;;25.82;29.60;95155.22;10367433;28;20052;-77
2021/04/22 08:20:59;;;;;;;13.48;6.35;;;;;;;26.95;29.87;95134.94;10366875;28;20445;-78
2021/04/22 08:26:10;;;;;;;17.88;6.53;;;;;;;27.56;29.62;95134.28;10368005;28;20101;-77
2021/04/22 08:31:18;;;;;;;13.30;6.20;;;;;;;28.35;28.04;95132.53;10366440;28;20117;-77
2021/04/22 08:36:20;;;;;;;15.27;6.05;;;;;;;28.31;26.43;95128.91;10366653;28;20030;-78
2021/04/22 08:41:21;;;;;;;12.80;5.35;;;;;;;29.42;25.59;95118.06;10365847;28;20497;-77
2021/04/22 08:46:23;;;;;;;11.13;5.65;;;;;;;27.07;26.77;95125.69;10367527;28;20104;-78
2021/04/22 08:51:24;;;;;;;13.00;7.15;;;;;;;26.09;29.42;95125.09;10365983;28;20404;-77
2021/04/22 08:56:24;;;;;;;14.40;5.45;;;;;;;28.22;28.68;95117.38;10366737;28;20034;-76
2021/04/22 09:01:26;;;;;;;14.45;5.57;;;;;;;28.70;28.38;95102.88;10366032;28;20033;-76
2021/04/22 09:06:29;;;;;;;14.45;4.97;;;;;;;28.02;28.49;95092.69;10365940;28;20033;-77
2021/04/22 09:11:29;;;;;;;13.93;5.45;;;;;;;26.39;29.77;95094.19;10366511;28;20038;-77
2021/04/22 09:16:29;;;;;;;9.35;4.18;;;;;;;25.25;28.98;95092.25;10365464;28;20022;-77
2021/04/22 09:21:33;;;;;;;10.73;4.90;;;;;;;23.63;30.76;95095.56;10364460;28;20026;-77
2021/04/22 09:26:41;;;;;;;19.55;6.30;;;;;;;22.12;33.22;95097.03;10365840;28;20096;-77
2021/04/22 09:31:42;;;;;;;22.90;7.10;;;;;;;21.39;35.47;95090.09;10365918;28;20032;-76
2021/04/22 09:36:52;;;;;;;11.82;7.10;;;;;;;21.00;36.08;95077.34;10366087;28;20033;-78
2021/04/22 09:41:55;;;;;;;15.43;6.45;;;;;;;22.53;34.61;95059.69;10366366;28;20057;-77
2021/04/22 09:47:16;;;;;;;4.80;2.05;;;;;;;25.86;25.64;95053.44;10365836;28;20073;-77
2021/04/22 09:52:18;;;;;;;1.10;1.00;;;;;;;28.40;22.05;95046.50;10372447;28;20034;-77
2021/04/22 09:57:21;;;;;;;1.65;1.05;;;;;;;27.53;21.65;95038.41;10365626;28;20048;-78
2021/04/22 10:02:23;;;;;;;1.90;1.10;;;;;;;29.53;19.39;95023.19;10364921;28;20805;-78
2021/04/22 10:07:30;;;;;;;1.67;0.90;;;;;;;32.21;17.85;95022.69;10365152;28;20021;-78
2021/04/22 10:12:34;;;;;;;1.30;0.90;;;;;;;27.52;20.67;95014.72;10364698;28;20049;-75
2021/04/22 10:17:36;;;;;;;3.33;1.20;;;;;;;29.24;21.92;95011.97;10364946;28;20037;-78
2021/04/22 10:22:43;;;;;;;0.82;0.77;;;;;;;29.01;20.95;95010.25;10365897;28;20112;-78
2021/04/22 10:27:44;;;;;;;8.80;5.47;;;;;;;28.14;21.74;95001.22;10364530;28;20440;-77
2021/04/22 10:32:45;;;;;;;2.13;0.90;;;;;;;29.74;21.09;94992.81;10363059;28;20049;-78
2021/04/22 10:37:49;;;;;;;4.25;1.42;;;;;;;30.81;18.03;94988.59;10363664;28;20037;-78
2021/04/22 10:42:53;;;;;;;1.45;1.10;;;;;;;27.68;20.17;94989.69;10363608;28;20228;-77
2021/04/22 10:47:54;;;;;;;1.30;0.93;;;;;;;28.91;19.94;94977.75;10362816;28;20405;-78
2021/04/22 10:52:55;;;;;;;1.55;0.80;;;;;;;26.39;20.94;94992.22;10363989;28;20033;-77
2021/04/22 10:58:13;;;;;;;4.15;0.80;;;;;;;24.21;22.41;95010.06;10375685;28;20041;-77
2021/04/22 11:03:23;;;;;;;1.30;0.73;;;;;;;22.58;22.98;94993.72;10404070;28;20040;-77
2021/04/22 11:08:31;;;;;;;3.42;2.00;;;;;;;21.95;23.70;94994.00;10403737;28;20026;-77
2021/04/22 11:13:32;;;;;;;2.85;1.42;;;;;;;20.75;27.54;94991.69;10403186;28;20037;-77
2021/04/22 11:18:42;;;;;;;1.92;1.20;;;;;;;20.70;26.94;94983.69;10402725;28;20025;-76
2021/04/22 11:23:42;;;;;;;2.60;1.70;;;;;;;20.60;26.23;94981.31;10402890;28;20488;-77
2021/04/22 11:28:43;;;;;;;1.30;1.17;;;;;;;20.57;27.30;94971.84;10402478;28;20017;-78
2021/04/22 11:33:45;;;;;;;4.40;1.50;;;;;;;20.97;25.17;94960.53;10401363;28;21066;-76
2021/04/22 11:39:00;;;;;;;6.50;3.33;;;;;;;21.29;27.25;94951.88;10401508;28;20463;-77
2021/04/22 11:44:10;;;;;;;6.40;2.13;;;;;;;21.49;26.31;94950.25;10400877;28;20570;-78
2021/04/22 11:49:24;;;;;;;2.75;1.42;;;;;;;21.57;26.16;94926.69;10413438;28;20396;-73
2021/04/22 11:54:32;;;;;;;2.53;1.38;;;;;;;21.02;27.12;94931.38;10400154;28;20041;-74
2021/04/22 11:59:34;;;;;;;1.67;1.40;;;;;;;21.43;27.63;94930.47;10400119;28;20489;-73
2021/04/22 12:04:39;;;;;;;2.40;1.55;;;;;;;20.97;26.27;94930.47;10399379;28;20072;-73
2021/04/22 12:09:46;;;;;;;3.25;1.70;;;;;;;20.69;29.03;94918.47;10399831;28;20021;-73
2021/04/22 12:14:55;;;;;;;5.22;2.10;;;;;;;20.14;31.63;94921.06;10401602;28;20036;-73
2021/04/22 12:20:08;;;;;;;1.52;1.10;;;;;;;19.61;28.97;94910.34;10399715;28;20022;-73
2021/04/22 12:25:19;;;;;;;2.55;1.20;;;;;;;19.32;28.97;94899.38;10399143;28;20067;-74
2021/04/22 12:30:35;;;;;;;4.53;1.23;;;;;;;18.52;27.64;94901.34;10380458;28;20024;-73
2021/04/22 12:35:37;;;;;;;1.52;1.30;;;;;;;18.33;28.64;94898.94;10398402;28;20539;-74
2021/04/22 12:40:38;;;;;;;1.73;1.42;;;;;;;18.34;28.23;94895.09;10398209;28;20037;-74
2021/04/22 12:45:39;;;;;;;3.30;1.40;;;;;;;18.49;30.75;94888.41;10399265;28;20060;-74
2021/04/22 12:50:43;;;;;;;1.70;1.45;;;;;;;18.82;29.00;94887.88;10399689;28;20021;-74
2021/04/22 12:55:48;;;;;;;5.78;1.58;;;;;;;19.30;29.02;94873.25;10400810;28;20033;-74
2021/04/22 13:00:55;;;;;;;2.15;1.33;;;;;;;19.35;27.55;94868.75;10406564;28;20113;-74
2021/04/22 13:05:58;;;;;;;1.52;1.27;;;;;;;19.15;27.21;94870.25;10406062;28;20021;-73
2021/04/22 13:11:03;;;;;;;2.00;1.25;;;;;;;19.08;28.68;94848.97;10406942;28;20135;-74
2021/04/22 13:16:09;;;;;;;3.65;1.23;;;;;;;18.82;28.46;94851.69;10388217;28;20480;-74
2021/04/22 13:21:24;;;;;;;1.40;1.30;;;;;;;18.62;28.64;94849.31;10406043;28;20033;-74
2021/04/22 13:26:30;;;;;;;4.82;1.42;;;;;;;18.57;27.67;94835.88;10405431;28;20021;-74
2021/04/22 13:31:31;;;;;;;3.00;1.25;;;;;;;18.77;27.26;94833.63;10405179;28;20049;-74
2021/04/22 13:36:39;;;;;;;1.20;1.10;;;;;;;18.79;28.48;94828.63;10403556;28;20034;-74
2021/04/22 13:41:41;;;;;;;1.20;1.07;;;;;;;18.72;27.77;94814.72;10404260;28;20046;-74
2021/04/22 13:46:56;;;;;;;1.13;1.02;;;;;;;18.88;28.33;94820.47;10403733;28;20272;-74
2021/04/22 13:52:08;;;;;;;1.20;1.05;;;;;;;18.60;28.80;94812.63;10387619;28;20061;-74
2021/04/22 13:57:20;;;;;;;1.52;1.38;;;;;;;18.37;29.33;94820.19;10403520;28;20034;-74
2021/04/22 14:02:22;;;;;;;2.88;1.05;;;;;;;18.20;29.79;94808.19;10403832;28;20052;-74
2021/04/22 14:07:30;;;;;;;2.20;1.17;;;;;;;18.27;30.05;94811.22;10402190;28;20029;-74
2021/04/22 14:12:33;;;;;;;2.03;1.50;;;;;;;18.28;29.33;94807.41;10402870;28;20021;-73
2021/04/22 14:17:35;;;;;;;3.90;0.95;;;;;;;18.49;29.79;94798.59;10402001;28;20026;-73
2021/04/22 14:22:35;;;;;;;9.00;1.50;;;;;;;18.76;30.59;94788.44;10384128;28;20039;-73
2021/04/22 14:27:36;;;;;;;1.08;0.90;;;;;;;18.86;28.87;94790.81;10383550;28;20026;-73
2021/04/22 14:32:37;;;;;;;2.10;1.10;;;;;;;18.74;28.62;94786.06;10385196;28;20544;-73
2021/04/22 14:37:37;;;;;;;1.50;1.40;;;;;;;18.72;29.81;94787.50;10384046;28;20349;-74
2021/04/22 14:42:37;;;;;;;2.13;1.40;;;;;;;18.21;30.90;94779.88;10369554;28;20065;-74
2021/04/22 14:47:38;;;;;;;1.77;1.43;;;;;;;18.16;31.54;94781.97;10360086;28;20059;-73
2021/04/22 14:52:38;;;;;;;2.28;1.55;;;;;;;18.07;31.21;94790.09;10360573;28;20034;-73
2021/04/22 15:09:32;;;;;;;2.13;1.30;;;;;;;17.95;30.37;94781.78;10361821;28;20037;-74
2021/04/22 15:20:31;;;;;;;1.40;1.30;;;;;;;18.02;30.39;94779.41;10391310;28;20034;-73
2021/04/22 15:25:32;;;;;;;1.83;1.35;;;;;;;17.89;31.80;94787.34;10397920;28;20032;-73
2021/04/22 15:30:33;;;;;;;3.72;1.30;;;;;;;17.82;31.36;94778.88;10380026;28;20026;-73
2021/04/22 15:35:33;;;;;;;2.95;1.55;;;;;;;17.65;32.13;94778.81;10357896;28;20158;-73
2021/04/22 15:40:36;;;;;;;1.60;1.30;;;;;;;17.41;32.51;94772.72;10357572;28;20481;-73
2021/04/22 15:45:37;;;;;;;2.15;1.15;;;;;;;17.56;31.82;94773.38;10357906;28;20107;-74
2021/04/22 15:50:37;;;;;;;2.08;1.40;;;;;;;17.52;31.46;94780.56;10357706;28;20858;-74
2021/04/22 15:55:38;;;;;;;7.27;1.27;;;;;;;17.27;32.13;94780.16;10357550;28;20033;-73
2021/04/22 16:00:39;;;;;;;1.63;1.30;;;;;;;17.00;32.57;94798.28;10357277;28;20113;-74
2021/04/22 16:05:39;;;;;;;1.65;1.55;;;;;;;16.95;33.37;94784.81;10358595;28;20038;-74
2021/04/22 16:10:40;;;;;;;2.93;1.40;;;;;;;16.74;33.33;94795.38;10373578;28;20029;-74
2021/04/22 16:15:41;;;;;;;2.45;1.75;;;;;;;16.71;34.15;94779.72;10399504;28;20450;-74
2021/04/22 16:20:41;;;;;;;4.13;1.43;;;;;;;16.57;34.29;94791.44;10398982;28;20029;-74
2021/04/22 16:25:42;;;;;;;13.65;2.08;;;;;;;16.36;34.66;94788.44;10397459;28;20271;-73
2021/04/22 16:30:43;;;;;;;4.13;1.87;;;;;;;16.37;35.48;94798.19;10402348;28;20031;-74
2021/04/22 16:35:43;;;;;;;6.50;1.25;;;;;;;16.30;34.65;94797.00;10378292;28;20133;-79
2021/04/22 16:40:44;;;;;;;2.63;1.33;;;;;;;16.29;35.58;94798.94;10363604;28;20488;-74
2021/04/22 16:45:44;;;;;;;3.20;1.73;;;;;;;16.03;35.86;94801.44;10389992;28;20534;-75
2021/04/22 16:50:45;;;;;;;2.17;1.50;;;;;;;15.93;35.37;94797.03;10405431;28;20037;-74
2021/04/22 16:55:46;;;;;;;6.35;1.73;;;;;;;15.58;36.44;94791.25;10405509;28;20416;-73
2021/04/22 17:00:49;;;;;;;2.15;1.50;;;;;;;15.45;37.54;94800.22;10383080;28;20121;-74
2021/04/22 17:05:50;;;;;;;2.15;1.60;;;;;;;15.18;39.00;94813.47;10376880;28;20029;-74
2021/04/22 17:10:50;;;;;;;9.52;1.95;;;;;;;15.27;39.39;94818.19;10395506;28;20017;-74
2021/04/22 17:15:51;;;;;;;2.25;1.65;;;;;;;14.98;40.46;94811.91;10388725;28;20476;-73
2021/04/22 17:20:51;;;;;;;7.18;2.15;;;;;;;14.83;40.60;94807.59;10366897;28;20028;-73
2021/04/22 17:25:52;;;;;;;5.10;2.10;;;;;;;14.94;39.74;94821.72;10383143;28;20033;-74
2021/04/22 17:30:52;;;;;;;3.43;2.20;;;;;;;14.97;40.89;94826.56;10364683;28;20030;-73
2021/04/22 17:35:53;;;;;;;2.93;2.03;;;;;;;15.02;41.91;94826.47;10385737;28;20088;-74
2021/04/22 17:40:53;;;;;;;5.82;2.45;;;;;;;15.14;41.22;94844.94;10364444;28;20036;-73
2021/04/22 17:45:54;;;;;;;4.18;1.70;;;;;;;15.10;40.55;94859.34;10385453;28;20033;-73
2021/04/22 17:50:55;;;;;;;2.97;1.45;;;;;;;14.94;40.50;94858.84;10382430;28;20129;-73
2021/04/22 17:55:56;;;;;;;3.13;1.92;;;;;;;14.91;42.09;94875.66;10384299;28;20099;-74
2021/04/22 18:00:56;;;;;;;2.40;1.97;;;;;;;14.92;41.13;94888.91;10372886;28;20030;-73
2021/04/22 18:05:57;;;;;;;4.25;2.17;;;;;;;14.61;42.21;94896.66;10364518;28;20273;-73
2021/04/22 18:10:58;;;;;;;5.45;2.72;;;;;;;14.41;43.92;94904.00;10436576;28;20034;-73
2021/04/22 18:15:58;;;;;;;2.83;2.00;;;;;;;14.28;45.56;94908.25;10434151;28;20029;-73
2021/04/22 18:20:59;;;;;;;2.47;2.13;;;;;;;14.33;45.34;94918.16;10413009;28;20300;-73
2021/04/22 18:26:00;;;;;;;5.32;2.40;;;;;;;14.32;47.33;94924.69;10403349;28;20260;-73
2021/04/22 18:31:02;;;;;;;2.88;2.47;;;;;;;14.41;47.48;94933.72;10385079;28;20033;-74
2021/04/22 18:36:03;;;;;;;10.10;3.25;;;;;;;14.51;46.13;94927.38;10403684;28;20079;-73
2021/04/22 18:41:03;;;;;;;9.32;2.80;;;;;;;14.24;50.02;94941.56;10383060;28;20057;-73
2021/04/22 18:46:04;;;;;;;2.30;2.10;;;;;;;13.94;50.71;94952.47;10363093;28;20623;-73
2021/04/22 18:51:04;;;;;;;3.23;1.87;;;;;;;13.88;51.00;94961.72;10414695;28;20383;-73
2021/04/22 18:56:05;;;;;;;6.57;2.03;;;;;;;13.81;51.55;94955.88;10393845;28;20097;-74
2021/04/22 19:01:05;;;;;;;4.00;2.67;;;;;;;13.57;54.27;94951.25;10400637;28;20033;-74
2021/04/22 19:06:06;;;;;;;4.15;2.58;;;;;;;13.76;57.76;94931.59;10402035;28;20461;-74
2021/04/22 19:11:06;;;;;;;10.00;4.43;;;;;;;13.76;57.75;94950.50;10401714;28;20035;-74
2021/04/22 19:16:07;;;;;;;3.05;2.60;;;;;;;13.73;54.41;94970.00;10413629;28;20037;-74
2021/04/22 19:21:07;;;;;;;5.40;2.80;;;;;;;13.63;56.89;94971.75;10410741;28;20499;-74
2021/04/22 19:26:08;;;;;;;3.90;3.00;;;;;;;13.76;54.42;94964.00;10410465;28;20459;-73
2021/04/22 19:31:10;;;;;;;6.15;3.50;;;;;;;13.62;54.72;94956.63;10418240;28;20052;-74
2021/04/22 19:36:10;;;;;;;3.80;3.33;;;;;;;13.77;55.89;94952.13;10423227;28;20090;-74
2021/04/22 19:41:11;;;;;;;4.95;2.90;;;;;;;13.84;54.72;94956.09;10419029;28;20086;-74
2021/04/22 19:46:12;;;;;;;8.15;4.15;;;;;;;13.88;55.57;94964.41;10438971;28;20118;-81
2021/04/22 19:51:15;;;;;;;4.93;3.88;;;;;;;13.74;60.63;94966.22;10443995;28;20033;-79
2021/04/22 19:56:15;;;;;;;7.43;3.45;;;;;;;13.77;61.57;94962.94;10434028;28;20037;-80
2021/04/22 20:01:16;;;;;;;4.10;3.15;;;;;;;13.81;58.78;94967.50;10401240;28;20502;-80
2021/04/22 20:06:19;;;;;;;9.63;3.10;;;;;;;13.83;60.85;94959.09;10407857;28;20022;-80
2021/04/22 20:11:20;;;;;;;4.35;3.38;;;;;;;13.84;64.00;94972.31;10415251;28;20044;-79
2021/04/22 20:16:21;;;;;;;4.97;4.00;;;;;;;13.63;74.27;94966.34;10386492;28;20025;-80
2021/04/22 20:21:21;;;;;;;5.78;3.88;;;;;;;13.55;78.98;94958.84;10368639;28;20399;-80
2021/04/22 20:26:22;;;;;;;4.60;4.07;;;;;;;13.47;76.33;94962.97;10350935;28;20496;-79
2021/04/22 20:31:23;;;;;;;56.38;25.67;;;;;;;13.37;76.80;94962.25;10366264;28;20033;-80
2021/04/22 20:36:23;;;;;;;5.77;4.43;;;;;;;13.33;88.50;94968.22;10367645;28;20025;-80
2021/04/22 20:41:27;;;;;;;5.93;3.60;;;;;;;13.26;96.27;94966.94;10368151;28;20327;-79
2021/04/22 20:46:27;;;;;;;12.80;3.80;;;;;;;13.10;100.00;94969.78;10366441;28;20489;-80
2021/04/22 20:51:27;;;;;;;4.90;3.13;;;;;;;13.03;100.00;94971.19;10367180;28;20034;-79
2021/04/22 20:56:28;;;;;;;5.30;2.50;;;;;;;12.92;100.00;94967.75;10377448;28;20303;-80
2021/04/22 21:01:28;;;;;;;3.23;2.33;;;;;;;12.78;100.00;94963.03;10406366;28;20038;-80
2021/04/22 21:06:29;;;;;;;4.85;2.75;;;;;;;12.77;100.00;94958.69;10407146;28;20276;-80
2021/04/22 21:11:44;;;;;;;4.43;3.38;;;;;;;12.70;100.00;94949.31;10389201;28;20103;-80
2021/04/22 21:16:46;;;;;;;5.60;3.28;;;;;;;12.68;100.00;94946.91;10365279;28;20029;-80
2021/04/22 21:21:48;;;;;;;6.95;3.40;;;;;;;12.70;100.00;94949.31;10367757;28;20028;-84
2021/04/22 21:27:07;;;;;;;7.10;3.40;;;;;;;12.62;100.00;94940.75;10372147;28;20084;-82
2021/04/22 21:32:11;;;;;;;5.43;3.92;;;;;;;12.51;100.00;94949.19;10382639;28;20447;-83
2021/04/22 21:37:13;;;;;;;9.35;4.38;;;;;;;12.44;100.00;94947.59;10379378;28;20029;-83
2021/04/22 21:42:14;;;;;;;9.20;4.43;;;;;;;12.39;100.00;94953.03;10398502;28;20042;-83
2021/04/22 21:47:17;;;;;;;8.90;4.35;;;;;;;12.31;100.00;94948.22;10416280;28;20030;-82
2021/04/22 21:52:22;;;;;;;5.70;3.90;;;;;;;12.14;100.00;94938.63;10415752;28;20064;-82
2021/04/22 21:57:26;;;;;;;6.82;3.97;;;;;;;12.08;100.00;94938.91;10397580;28;20036;-83
2021/04/22 22:02:26;;;;;;;7.07;3.88;;;;;;;11.84;100.00;94936.84;10397359;28;20482;-83
2021/04/22 22:07:27;;;;;;;6.57;3.85;;;;;;;11.73;100.00;94936.06;10415118;28;20025;-82
2021/04/22 22:12:28;;;;;;;8.27;4.10;;;;;;;11.76;100.00;94932.03;10414611;28;20786;-83
2021/04/22 22:17:28;;;;;;;7.03;4.07;;;;;;;11.80;100.00;94931.22;10414834;28;20592;-83
2021/04/22 22:22:28;;;;;;;11.00;3.97;;;;;;;11.84;100.00;94930.66;10414219;28;20041;-83
2021/04/22 22:27:29;;;;;;;12.77;4.90;;;;;;;11.57;100.00;94929.94;10396511;28;20268;-82
2021/04/22 22:32:29;;;;;;;9.17;5.10;;;;;;;11.40;100.00;94932.97;10413095;28;20040;-82
2021/04/22 22:37:29;;;;;;;8.60;5.03;;;;;;;11.15;100.00;94930.31;10413225;28;20087;-81
2021/04/22 22:42:30;;;;;;;6.67;4.10;;;;;;;10.95;100.00;94926.56;10413575;28;20140;-81
2021/04/22 22:47:30;;;;;;;6.93;3.93;;;;;;;10.97;100.00;94924.44;10413166;28;20091;-82
2021/04/22 22:52:31;;;;;;;6.70;4.13;;;;;;;11.06;100.00;94930.06;10373041;28;20033;-82
2021/04/22 22:57:31;;;;;;;9.52;4.20;;;;;;;11.01;100.00;94917.44;10372177;28;20034;-82
2021/04/22 23:02:31;;;;;;;5.65;3.85;;;;;;;10.80;100.00;94907.75;10371308;28;20053;-82
2021/04/22 23:07:32;;;;;;;6.33;3.90;;;;;;;10.76;100.00;94910.19;10371666;28;20053;-81
2021/04/22 23:12:32;;;;;;;5.57;4.20;;;;;;;10.80;100.00;94915.81;10369914;28;20528;-81
2021/04/22 23:17:33;;;;;;;10.07;4.25;;;;;;;10.86;100.00;94909.38;10368529;28;20983;-81
2021/04/22 23:22:33;;;;;;;7.03;4.27;;;;;;;10.81;100.00;94918.25;10369679;28;20088;-81
2021/04/22 23:27:34;;;;;;;4.45;3.50;;;;;;;10.92;100.00;94900.22;10369038;28;20799;-81
2021/04/22 23:32:35;;;;;;;6.88;4.15;;;;;;;10.63;100.00;94900.78;10368977;28;20030;-81